Nearby METAR Reports

 

KSJC - San Jose, California, USA
Distance from station: NE 14km
Updated: 26/11/2022 16:53
Clear
Clear
 Wind from NNW
Wind: NNW 7 km/h
Temperature: 16°C
Dew Point: 3°C
Humidity: 42%
Barometer: 1019.3 hPa
Clouds: Clear
Visibility: 16 km
2022/11/27 00:53 KSJC 270053Z 33004KT 10SM CLR 16/03 A3010 RMK AO2 SLP191 T01560028
KNUQ - Moffett Nas/Mtn, California, USA
Distance from station: N 14km
Updated: 26/11/2022 16:55
Clear
Clear
 Wind from calm
Wind: Calm
Temperature: 14°C
Dew Point: 5°C
Humidity: 55%
Barometer: 1019.3 hPa
Clouds: Clear
Visibility: 16 km
2022/11/27 00:55 KNUQ 270055Z AUTO 00000KT 10SM CLR 14/05 A3010 RMK AO2
 
KPAO - Palo Alto, California, USA
Distance from station: NNW 23km
Updated: 26/11/2022 16:47
Clear
Clear
 Wind from W
Wind: W 7 km/h
Temperature: 15°C
Dew Point: 4°C
Humidity: 48%
Barometer: 1019.3 hPa
Clouds: Clear
Visibility: 16 km
2022/11/27 00:47 KPAO 270047Z 28004KT 10SM SKC 15/04 A3010
KRHV - San Jose/Reid, California, USA
Distance from station: ENE 19km
Updated: 26/11/2022 16:50
Clear
Clear
 Wind from NW
Wind: NW 7 km/h
Temperature: 15°C
Dew Point: 5°C
Humidity: 51%
Barometer: 1019.3 hPa
Clouds: Clear
Visibility: 16 km
2022/11/27 00:50 KRHV 270050Z 31004KT 10SM SKC 15/05 A3010
 
KOAK - Oakland, California, USA
Distance from station: NNW 50km
Updated: 26/11/2022 16:53
Clear
Clear
 Wind from WNW
Wind: WNW 11 km/h
Temperature: 14°C
Dew Point: 8°C
Humidity: 67%
Barometer: 1019.3 hPa
Clouds: Clear
Visibility: 16 km
2022/11/27 00:53 KOAK 270053Z 30006KT 10SM CLR 14/08 A3010 RMK AO2 SLP193 T01390078
KSQL - San Carlos Airpo, California, USA
Distance from station: NW 34km
Updated: 26/11/2022 15:47
NOT Current
Clear
Clear
 Wind from calm
Wind: Calm
Temperature: 18°C
Dew Point: 4°C
Humidity: 40%
Barometer: 1020 hPa
Clouds: Clear
Visibility: 16 km
2022/11/26 23:47 KSQL 262347Z 00000KT 10SM CLR 18/04 A3012
 
KSFO - San Francisco, California, USA
Distance from station: NW 49km
Updated: 26/11/2022 16:56
Clear
Clear
 Wind from WNW
Wind: WNW 20 km/h
Temperature: 14°C
Dew Point: 8°C
Humidity: 67%
Barometer: 1019.3 hPa
Clouds: Clear
Visibility: 16 km
2022/11/27 00:56 KSFO 270056Z 29011KT 10SM CLR 14/08 A3010 RMK AO2 SLP193 T01440083
KE16 - San Martin, California, USA
Distance from station: ESE 43km
Updated: 26/11/2022 16:55
Clear
Clear
 Wind from NW
Wind: NW 15 km/h
Temperature: 15°C
Dew Point: 2°C
Humidity: 42%
Barometer: 1019.6 hPa
Clouds: Clear
Visibility: 16 km
2022/11/27 00:55 KE16 270055Z AUTO 32008KT 10SM CLR 15/02 A3011 RMK AO2 PWINO PNO
 
KWVI - Watsonville, California, USA
Distance from station: SSE 44km
Updated: 26/11/2022 16:53
Clear
Clear
 Wind from SE
Wind: SE 9 km/h
Temperature: 11°C
Dew Point: 8°C
Humidity: 82%
Barometer: 1019.3 hPa
Clouds: Clear
Visibility: 16 km
2022/11/27 00:53 KWVI 270053Z AUTO 13005KT 10SM CLR 11/08 A3010 RMK AO2 SLP194 T01110083
KHAF - Half Moon Bay, California, USA
Distance from station: WNW 50km
Updated: 26/11/2022 16:55
Haze, Clear
Haze, Clear
 Wind from NNW
Wind: NNW 22 km/h
Temperature: 12°C
Dew Point: 10°C
Humidity: 88%
Barometer: 1019.6 hPa
Summary: Haze
Clouds: Clear
Visibility: 10 km
2022/11/27 00:55 KHAF 270055Z AUTO 33012KT 6SM HZ CLR 12/10 A3011 RMK AO2
 
KHWD - Hayward, California, USA
Distance from station: N 44km
Updated: 26/11/2022 16:54
Clear
Clear
 Wind from calm
Wind: Calm
Temperature: 14°C
Dew Point: 8°C
Humidity: 67%
Barometer: 1019.3 hPa
Clouds: Clear
2022/11/27 00:54 KHWD 270054Z 00000KT CLR 14/08 A3010 RMK AO2 SLP201 T01390083 $
KLVK - Livermore, California, USA
Distance from station: NNE 51km
Updated: 26/11/2022 16:53
Clear
Clear
 Wind from E
Wind: E 7 km/h
Temperature: 15°C
Dew Point: 0°C
Humidity: 36%
Barometer: 1019 hPa
Clouds: Clear
Visibility: 16 km
2022/11/27 00:53 KLVK 270053Z 10004KT 10SM CLR 15/00 A3009 RMK AO2 SLP189 T01500000